sensor_id;sensor_type;location;lat;lon;timestamp;P1;durP1;ratioP1;P2;durP2;ratioP2
37365;SDS011;23239;51.504;7.456;2022-12-07T00:03:09;43.4;;;37.5;;
37365;SDS011;23239;51.504;7.456;2022-12-07T00:08:09;38;;;33.6;;
37365;SDS011;23239;51.504;7.456;2022-12-07T00:13:09;41.7;;;37.2;;
37365;SDS011;23239;51.504;7.456;2022-12-07T00:18:09;41.9;;;37.3;;
37365;SDS011;23239;51.504;7.456;2022-12-07T00:23:09;43;;;37;;
37365;SDS011;23239;51.504;7.456;2022-12-07T00:28:09;38.9;;;34.7;;
37365;SDS011;23239;51.504;7.456;2022-12-07T00:33:09;39.5;;;35.4;;
37365;SDS011;23239;51.504;7.456;2022-12-07T00:38:09;38.6;;;34.5;;
37365;SDS011;23239;51.504;7.456;2022-12-07T00:43:09;39.1;;;34.8;;
37365;SDS011;23239;51.504;7.456;2022-12-07T00:48:09;37.2;;;33.2;;
37365;SDS011;23239;51.504;7.456;2022-12-07T00:53:09;40.1;;;35.4;;
37365;SDS011;23239;51.504;7.456;2022-12-07T00:58:09;36.5;;;32.6;;
37365;SDS011;23239;51.504;7.456;2022-12-07T01:03:10;37.3;;;33.3;;
37365;SDS011;23239;51.504;7.456;2022-12-07T01:08:09;37.4;;;32.6;;
37365;SDS011;23239;51.504;7.456;2022-12-07T01:13:09;35.1;;;30.4;;
37365;SDS011;23239;51.504;7.456;2022-12-07T01:18:09;31.4;;;26.9;;
37365;SDS011;23239;51.504;7.456;2022-12-07T01:23:09;31.9;;;28.5;;
37365;SDS011;23239;51.504;7.456;2022-12-07T01:28:09;32.9;;;29.4;;
37365;SDS011;23239;51.504;7.456;2022-12-07T01:33:09;34.3;;;30.6;;
37365;SDS011;23239;51.504;7.456;2022-12-07T01:38:09;36.3;;;31.9;;
37365;SDS011;23239;51.504;7.456;2022-12-07T01:43:13;37.9;;;33.8;;
37365;SDS011;23239;51.504;7.456;2022-12-07T01:48:09;37.3;;;33.4;;
37365;SDS011;23239;51.504;7.456;2022-12-07T01:53:09;36.6;;;32.6;;
37365;SDS011;23239;51.504;7.456;2022-12-07T01:58:09;38.2;;;34;;
37365;SDS011;23239;51.504;7.456;2022-12-07T02:03:11;38;;;34;;
37365;SDS011;23239;51.504;7.456;2022-12-07T02:08:09;37.2;;;33.3;;
37365;SDS011;23239;51.504;7.456;2022-12-07T02:13:10;37.9;;;33.8;;
37365;SDS011;23239;51.504;7.456;2022-12-07T02:18:11;36.4;;;32.5;;
37365;SDS011;23239;51.504;7.456;2022-12-07T02:23:19;37;;;32.8;;
37365;SDS011;23239;51.504;7.456;2022-12-07T02:28:12;35.9;;;32;;
37365;SDS011;23239;51.504;7.456;2022-12-07T02:33:11;36.6;;;31.8;;
37365;SDS011;23239;51.504;7.456;2022-12-07T02:38:11;35.7;;;32;;
37365;SDS011;23239;51.504;7.456;2022-12-07T02:43:10;35.2;;;31.4;;
37365;SDS011;23239;51.504;7.456;2022-12-07T02:48:10;34.6;;;30.8;;
37365;SDS011;23239;51.504;7.456;2022-12-07T02:53:27;32;;;28.5;;
37365;SDS011;23239;51.504;7.456;2022-12-07T02:58:14;33.6;;;29.8;;
37365;SDS011;23239;51.504;7.456;2022-12-07T03:03:10;35.9;;;31.3;;
37365;SDS011;23239;51.504;7.456;2022-12-07T03:08:11;32;;;28.6;;
37365;SDS011;23239;51.504;7.456;2022-12-07T03:13:11;35.2;;;30.4;;
37365;SDS011;23239;51.504;7.456;2022-12-07T03:18:09;35.1;;;29.2;;
37365;SDS011;23239;51.504;7.456;2022-12-07T03:23:09;33.6;;;29.9;;
37365;SDS011;23239;51.504;7.456;2022-12-07T03:28:09;32.2;;;28;;
37365;SDS011;23239;51.504;7.456;2022-12-07T03:33:10;30.9;;;27.6;;
37365;SDS011;23239;51.504;7.456;2022-12-07T03:38:11;30.9;;;26.8;;
37365;SDS011;23239;51.504;7.456;2022-12-07T03:43:09;31.1;;;27.7;;
37365;SDS011;23239;51.504;7.456;2022-12-07T03:48:12;30.8;;;27.5;;
37365;SDS011;23239;51.504;7.456;2022-12-07T03:53:11;31;;;27.8;;
37365;SDS011;23239;51.504;7.456;2022-12-07T03:58:10;34.3;;;29.3;;
37365;SDS011;23239;51.504;7.456;2022-12-07T04:03:10;33.8;;;30.3;;
37365;SDS011;23239;51.504;7.456;2022-12-07T04:08:09;34.1;;;30.4;;
37365;SDS011;23239;51.504;7.456;2022-12-07T04:13:09;33.5;;;29.9;;
37365;SDS011;23239;51.504;7.456;2022-12-07T04:18:09;34.5;;;28.9;;
37365;SDS011;23239;51.504;7.456;2022-12-07T04:23:09;31;;;26.2;;
37365;SDS011;23239;51.504;7.456;2022-12-07T04:28:09;30.1;;;26.8;;
37365;SDS011;23239;51.504;7.456;2022-12-07T04:33:09;31.2;;;27.8;;
37365;SDS011;23239;51.504;7.456;2022-12-07T04:38:09;31.2;;;27.8;;
37365;SDS011;23239;51.504;7.456;2022-12-07T04:43:09;33.1;;;27.1;;
37365;SDS011;23239;51.504;7.456;2022-12-07T04:48:09;30.5;;;26.5;;
37365;SDS011;23239;51.504;7.456;2022-12-07T04:53:09;28.9;;;24.5;;
37365;SDS011;23239;51.504;7.456;2022-12-07T04:58:09;26.2;;;23.3;;
37365;SDS011;23239;51.504;7.456;2022-12-07T05:03:09;26.8;;;23.1;;
37365;SDS011;23239;51.504;7.456;2022-12-07T05:08:09;25.8;;;22.9;;
37365;SDS011;23239;51.504;7.456;2022-12-07T05:13:09;26.4;;;23.5;;
37365;SDS011;23239;51.504;7.456;2022-12-07T05:18:09;27.9;;;22.2;;
37365;SDS011;23239;51.504;7.456;2022-12-07T05:23:10;27.3;;;23;;
37365;SDS011;23239;51.504;7.456;2022-12-07T05:28:09;29.1;;;22.3;;
37365;SDS011;23239;51.504;7.456;2022-12-07T05:33:09;27.4;;;22.8;;
37365;SDS011;23239;51.504;7.456;2022-12-07T05:38:09;26.9;;;23;;
37365;SDS011;23239;51.504;7.456;2022-12-07T05:43:09;25.3;;;22;;
37365;SDS011;23239;51.504;7.456;2022-12-07T05:48:09;27;;;22.6;;
37365;SDS011;23239;51.504;7.456;2022-12-07T05:53:09;26.8;;;22.6;;
37365;SDS011;23239;51.504;7.456;2022-12-07T05:58:09;30;;;23.1;;
37365;SDS011;23239;51.504;7.456;2022-12-07T06:03:09;27.6;;;22.7;;
37365;SDS011;23239;51.504;7.456;2022-12-07T06:08:09;27;;;23.5;;
37365;SDS011;23239;51.504;7.456;2022-12-07T06:13:09;27.6;;;23.3;;
37365;SDS011;23239;51.504;7.456;2022-12-07T06:18:09;28.3;;;22.3;;
37365;SDS011;23239;51.504;7.456;2022-12-07T06:23:09;29.3;;;22.6;;
37365;SDS011;23239;51.504;7.456;2022-12-07T06:28:09;28.3;;;21.3;;
37365;SDS011;23239;51.504;7.456;2022-12-07T06:33:09;26.3;;;19.8;;
37365;SDS011;23239;51.504;7.456;2022-12-07T06:38:09;27.2;;;20.9;;
37365;SDS011;23239;51.504;7.456;2022-12-07T06:43:09;29.5;;;20.4;;
37365;SDS011;23239;51.504;7.456;2022-12-07T06:48:09;25.2;;;21;;
37365;SDS011;23239;51.504;7.456;2022-12-07T06:53:09;25.9;;;20.6;;
37365;SDS011;23239;51.504;7.456;2022-12-07T06:58:09;27.7;;;21.5;;
37365;SDS011;23239;51.504;7.456;2022-12-07T07:03:09;30;;;21;;
37365;SDS011;23239;51.504;7.456;2022-12-07T07:08:10;27.5;;;19.3;;
37365;SDS011;23239;51.504;7.456;2022-12-07T07:13:09;31.6;;;21.8;;
37365;SDS011;23239;51.504;7.456;2022-12-07T07:18:09;28.2;;;20.1;;
37365;SDS011;23239;51.504;7.456;2022-12-07T07:23:09;29.7;;;19.6;;
37365;SDS011;23239;51.504;7.456;2022-12-07T07:28:09;26.9;;;18.8;;
37365;SDS011;23239;51.504;7.456;2022-12-07T07:33:09;22.9;;;17.6;;
37365;SDS011;23239;51.504;7.456;2022-12-07T07:38:09;23.2;;;16.1;;
37365;SDS011;23239;51.504;7.456;2022-12-07T07:43:09;23.7;;;16;;
37365;SDS011;23239;51.504;7.456;2022-12-07T07:48:09;21.8;;;14.9;;
37365;SDS011;23239;51.504;7.456;2022-12-07T07:53:09;22;;;14.9;;
37365;SDS011;23239;51.504;7.456;2022-12-07T07:58:09;20.5;;;14.8;;
37365;SDS011;23239;51.504;7.456;2022-12-07T08:03:09;21.9;;;14.8;;
37365;SDS011;23239;51.504;7.456;2022-12-07T08:08:09;26.8;;;15.9;;
37365;SDS011;23239;51.504;7.456;2022-12-07T08:13:09;23.5;;;15.4;;
37365;SDS011;23239;51.504;7.456;2022-12-07T08:18:09;25.8;;;14.4;;
37365;SDS011;23239;51.504;7.456;2022-12-07T08:23:09;19.8;;;13.7;;
37365;SDS011;23239;51.504;7.456;2022-12-07T08:28:09;22.5;;;14.4;;
37365;SDS011;23239;51.504;7.456;2022-12-07T08:33:09;21.6;;;13.1;;
37365;SDS011;23239;51.504;7.456;2022-12-07T08:38:09;20.4;;;12.8;;
37365;SDS011;23239;51.504;7.456;2022-12-07T08:43:09;21.1;;;12.3;;
37365;SDS011;23239;51.504;7.456;2022-12-07T08:48:10;22.5;;;11.8;;
37365;SDS011;23239;51.504;7.456;2022-12-07T08:53:09;18.1;;;11.4;;
37365;SDS011;23239;51.504;7.456;2022-12-07T08:58:09;17.3;;;10.9;;
37365;SDS011;23239;51.504;7.456;2022-12-07T09:03:09;16.7;;;10.5;;
37365;SDS011;23239;51.504;7.456;2022-12-07T09:08:09;16.6;;;10.6;;
37365;SDS011;23239;51.504;7.456;2022-12-07T09:13:09;19.5;;;10.9;;
37365;SDS011;23239;51.504;7.456;2022-12-07T09:18:09;18.7;;;11.4;;
37365;SDS011;23239;51.504;7.456;2022-12-07T09:23:09;21.8;;;12.1;;
37365;SDS011;23239;51.504;7.456;2022-12-07T09:28:09;20.4;;;12.4;;
37365;SDS011;23239;51.504;7.456;2022-12-07T09:33:09;20.3;;;12;;
37365;SDS011;23239;51.504;7.456;2022-12-07T09:38:09;21.8;;;12.4;;
37365;SDS011;23239;51.504;7.456;2022-12-07T09:43:11;22.9;;;13.2;;
37365;SDS011;23239;51.504;7.456;2022-12-07T09:48:12;24.4;;;13.6;;
37365;SDS011;23239;51.504;7.456;2022-12-07T09:53:12;22.1;;;12.5;;
37365;SDS011;23239;51.504;7.456;2022-12-07T09:58:10;22.1;;;12.9;;
37365;SDS011;23239;51.504;7.456;2022-12-07T10:03:09;20.8;;;12.8;;
37365;SDS011;23239;51.504;7.456;2022-12-07T10:08:09;21.9;;;14.3;;
37365;SDS011;23239;51.504;7.456;2022-12-07T10:13:10;22.8;;;14.5;;
37365;SDS011;23239;51.504;7.456;2022-12-07T10:18:18;22.9;;;15;;
37365;SDS011;23239;51.504;7.456;2022-12-07T10:23:13;23.3;;;16.1;;
37365;SDS011;23239;51.504;7.456;2022-12-07T10:28:12;24.5;;;16.4;;
37365;SDS011;23239;51.504;7.456;2022-12-07T10:33:15;26.4;;;16.7;;
37365;SDS011;23239;51.504;7.456;2022-12-07T10:38:14;27.5;;;17.5;;
37365;SDS011;23239;51.504;7.456;2022-12-07T10:43:15;23.8;;;15.4;;
37365;SDS011;23239;51.504;7.456;2022-12-07T10:48:10;23;;;13.7;;
37365;SDS011;23239;51.504;7.456;2022-12-07T10:53:16;20.4;;;11.8;;
37365;SDS011;23239;51.504;7.456;2022-12-07T10:58:16;18.7;;;11.4;;
37365;SDS011;23239;51.504;7.456;2022-12-07T11:03:17;18.3;;;11.5;;
37365;SDS011;23239;51.504;7.456;2022-12-07T11:08:13;15.3;;;9.8;;
37365;SDS011;23239;51.504;7.456;2022-12-07T11:13:13;15.9;;;10;;
37365;SDS011;23239;51.504;7.456;2022-12-07T11:18:11;15.8;;;10.2;;
37365;SDS011;23239;51.504;7.456;2022-12-07T11:23:13;18.7;;;9.8;;
37365;SDS011;23239;51.504;7.456;2022-12-07T11:28:13;14.1;;;9.1;;
37365;SDS011;23239;51.504;7.456;2022-12-07T11:33:12;14.9;;;8.7;;
37365;SDS011;23239;51.504;7.456;2022-12-07T11:38:11;14.3;;;8.3;;
37365;SDS011;23239;51.504;7.456;2022-12-07T11:43:13;16.1;;;8.6;;
37365;SDS011;23239;51.504;7.456;2022-12-07T11:48:10;14.3;;;9.5;;
37365;SDS011;23239;51.504;7.456;2022-12-07T11:53:10;14.4;;;9.2;;
37365;SDS011;23239;51.504;7.456;2022-12-07T11:58:14;14;;;9.4;;
37365;SDS011;23239;51.504;7.456;2022-12-07T12:03:11;20.4;;;9.5;;
37365;SDS011;23239;51.504;7.456;2022-12-07T12:08:12;14.8;;;8.8;;
37365;SDS011;23239;51.504;7.456;2022-12-07T12:13:16;15.3;;;7.6;;
37365;SDS011;23239;51.504;7.456;2022-12-07T12:18:14;15.6;;;7.7;;
37365;SDS011;23239;51.504;7.456;2022-12-07T12:23:10;12.8;;;6.2;;
37365;SDS011;23239;51.504;7.456;2022-12-07T12:28:18;13.5;;;6.5;;
37365;SDS011;23239;51.504;7.456;2022-12-07T12:33:12;11.8;;;6.3;;
37365;SDS011;23239;51.504;7.456;2022-12-07T12:38:27;14;;;6.3;;
37365;SDS011;23239;51.504;7.456;2022-12-07T12:43:43;12.5;;;5.9;;
37365;SDS011;23239;51.504;7.456;2022-12-07T12:48:26;11.6;;;5.7;;
37365;SDS011;23239;51.504;7.456;2022-12-07T12:53:19;13.8;;;5.4;;
37365;SDS011;23239;51.504;7.456;2022-12-07T12:58:28;10.6;;;4.9;;
37365;SDS011;23239;51.504;7.456;2022-12-07T13:03:25;12.5;;;5.7;;
37365;SDS011;23239;51.504;7.456;2022-12-07T13:08:12;10.2;;;5.1;;
37365;SDS011;23239;51.504;7.456;2022-12-07T13:13:30;12.3;;;5.3;;
37365;SDS011;23239;51.504;7.456;2022-12-07T13:18:25;11.6;;;5;;
37365;SDS011;23239;51.504;7.456;2022-12-07T13:23:09;10.9;;;4.8;;
37365;SDS011;23239;51.504;7.456;2022-12-07T13:28:12;11;;;4.8;;
37365;SDS011;23239;51.504;7.456;2022-12-07T13:33:17;12.3;;;4.5;;
37365;SDS011;23239;51.504;7.456;2022-12-07T13:38:16;11.5;;;4.1;;
37365;SDS011;23239;51.504;7.456;2022-12-07T13:43:12;8.2;;;3.9;;
37365;SDS011;23239;51.504;7.456;2022-12-07T13:48:11;9.8;;;4.3;;
37365;SDS011;23239;51.504;7.456;2022-12-07T13:53:11;8.5;;;3.8;;
37365;SDS011;23239;51.504;7.456;2022-12-07T13:58:09;13.3;;;4.7;;
37365;SDS011;23239;51.504;7.456;2022-12-07T14:03:26;11.1;;;4.2;;
37365;SDS011;23239;51.504;7.456;2022-12-07T14:08:21;13.8;;;4.3;;
37365;SDS011;23239;51.504;7.456;2022-12-07T14:13:22;11.3;;;4;;
37365;SDS011;23239;51.504;7.456;2022-12-07T14:18:24;10.9;;;4.5;;
37365;SDS011;23239;51.504;7.456;2022-12-07T14:23:21;12.2;;;4.6;;
37365;SDS011;23239;51.504;7.456;2022-12-07T14:28:09;11.4;;;4.5;;
37365;SDS011;23239;51.504;7.456;2022-12-07T14:33:09;11.2;;;4.1;;
37365;SDS011;23239;51.504;7.456;2022-12-07T14:38:09;9.4;;;4.4;;
37365;SDS011;23239;51.504;7.456;2022-12-07T14:43:10;8.8;;;3.6;;
37365;SDS011;23239;51.504;7.456;2022-12-07T14:48:10;7.2;;;3.5;;
37365;SDS011;23239;51.504;7.456;2022-12-07T14:53:10;5.1;;;3.2;;
37365;SDS011;23239;51.504;7.456;2022-12-07T14:58:11;7.8;;;4;;
37365;SDS011;23239;51.504;7.456;2022-12-07T15:03:10;5.8;;;3.4;;
37365;SDS011;23239;51.504;7.456;2022-12-07T15:08:10;6.2;;;3.7;;
37365;SDS011;23239;51.504;7.456;2022-12-07T15:13:09;5.9;;;3.7;;
37365;SDS011;23239;51.504;7.456;2022-12-07T15:18:09;7.1;;;4;;
37365;SDS011;23239;51.504;7.456;2022-12-07T15:23:10;7.4;;;4.1;;
37365;SDS011;23239;51.504;7.456;2022-12-07T15:28:09;8.4;;;4.2;;
37365;SDS011;23239;51.504;7.456;2022-12-07T15:33:10;9.9;;;4.6;;
37365;SDS011;23239;51.504;7.456;2022-12-07T15:38:10;10.3;;;4.4;;
37365;SDS011;23239;51.504;7.456;2022-12-07T15:43:09;9.3;;;5.1;;
37365;SDS011;23239;51.504;7.456;2022-12-07T15:48:09;9.8;;;5.2;;
37365;SDS011;23239;51.504;7.456;2022-12-07T15:53:09;12.4;;;5.2;;
37365;SDS011;23239;51.504;7.456;2022-12-07T15:58:09;9.8;;;5.4;;
37365;SDS011;23239;51.504;7.456;2022-12-07T16:03:09;12.8;;;6.1;;
37365;SDS011;23239;51.504;7.456;2022-12-07T16:08:09;15.6;;;7.4;;
37365;SDS011;23239;51.504;7.456;2022-12-07T16:13:10;14.5;;;7.5;;
37365;SDS011;23239;51.504;7.456;2022-12-07T16:18:10;11.8;;;6.9;;
37365;SDS011;23239;51.504;7.456;2022-12-07T16:23:09;16.4;;;7.9;;
37365;SDS011;23239;51.504;7.456;2022-12-07T16:28:09;11.3;;;6.9;;
37365;SDS011;23239;51.504;7.456;2022-12-07T16:33:09;12.3;;;6.7;;
37365;SDS011;23239;51.504;7.456;2022-12-07T16:38:09;12.2;;;6.4;;
37365;SDS011;23239;51.504;7.456;2022-12-07T16:43:10;13.4;;;6.7;;
37365;SDS011;23239;51.504;7.456;2022-12-07T16:48:09;11.1;;;6.4;;
37365;SDS011;23239;51.504;7.456;2022-12-07T16:53:12;14.2;;;6.8;;
37365;SDS011;23239;51.504;7.456;2022-12-07T16:58:10;12.9;;;7.1;;
37365;SDS011;23239;51.504;7.456;2022-12-07T17:03:09;12.8;;;7.2;;
37365;SDS011;23239;51.504;7.456;2022-12-07T17:08:10;12.6;;;6.4;;
37365;SDS011;23239;51.504;7.456;2022-12-07T17:13:10;13.9;;;6.9;;
37365;SDS011;23239;51.504;7.456;2022-12-07T17:18:09;10.8;;;6.4;;
37365;SDS011;23239;51.504;7.456;2022-12-07T17:23:09;15.6;;;6.8;;
37365;SDS011;23239;51.504;7.456;2022-12-07T17:28:09;12.5;;;7;;
37365;SDS011;23239;51.504;7.456;2022-12-07T17:33:09;15.1;;;7.8;;
37365;SDS011;23239;51.504;7.456;2022-12-07T17:38:09;13.7;;;7.4;;
37365;SDS011;23239;51.504;7.456;2022-12-07T17:43:09;13.5;;;6.6;;
37365;SDS011;23239;51.504;7.456;2022-12-07T17:48:10;14.8;;;6.7;;
37365;SDS011;23239;51.504;7.456;2022-12-07T17:53:10;13.5;;;6.9;;
37365;SDS011;23239;51.504;7.456;2022-12-07T17:58:09;18.1;;;7.5;;
37365;SDS011;23239;51.504;7.456;2022-12-07T18:03:09;14.3;;;7.2;;
37365;SDS011;23239;51.504;7.456;2022-12-07T18:08:09;11.6;;;7.2;;
37365;SDS011;23239;51.504;7.456;2022-12-07T18:13:10;11.2;;;6.4;;
37365;SDS011;23239;51.504;7.456;2022-12-07T18:18:09;10.2;;;5.9;;
37365;SDS011;23239;51.504;7.456;2022-12-07T18:23:09;9.5;;;5.2;;
37365;SDS011;23239;51.504;7.456;2022-12-07T18:28:09;8.7;;;4.8;;
37365;SDS011;23239;51.504;7.456;2022-12-07T18:33:09;7.9;;;4.6;;
37365;SDS011;23239;51.504;7.456;2022-12-07T18:38:09;9.2;;;5.1;;
37365;SDS011;23239;51.504;7.456;2022-12-07T18:43:09;8.8;;;5.7;;
37365;SDS011;23239;51.504;7.456;2022-12-07T18:48:09;11.4;;;7.2;;
37365;SDS011;23239;51.504;7.456;2022-12-07T18:53:10;13.8;;;7.9;;
37365;SDS011;23239;51.504;7.456;2022-12-07T18:58:09;12.7;;;7.7;;
37365;SDS011;23239;51.504;7.456;2022-12-07T19:03:09;9.6;;;7.6;;
37365;SDS011;23239;51.504;7.456;2022-12-07T19:08:09;12.1;;;8.5;;
37365;SDS011;23239;51.504;7.456;2022-12-07T19:13:09;11.5;;;8.5;;
37365;SDS011;23239;51.504;7.456;2022-12-07T19:18:09;12.9;;;8.5;;
37365;SDS011;23239;51.504;7.456;2022-12-07T19:23:09;12.5;;;8.9;;
37365;SDS011;23239;51.504;7.456;2022-12-07T19:28:10;14.1;;;8.9;;
37365;SDS011;23239;51.504;7.456;2022-12-07T19:33:09;16.6;;;10.5;;
37365;SDS011;23239;51.504;7.456;2022-12-07T19:38:09;15.6;;;9.4;;
37365;SDS011;23239;51.504;7.456;2022-12-07T19:43:09;18.3;;;10.3;;
37365;SDS011;23239;51.504;7.456;2022-12-07T19:48:10;13.7;;;9.8;;
37365;SDS011;23239;51.504;7.456;2022-12-07T19:53:09;14.9;;;10.7;;
37365;SDS011;23239;51.504;7.456;2022-12-07T19:58:09;14.9;;;12.2;;
37365;SDS011;23239;51.504;7.456;2022-12-07T20:03:09;16.9;;;14;;
37365;SDS011;23239;51.504;7.456;2022-12-07T20:08:10;19.5;;;16.2;;
37365;SDS011;23239;51.504;7.456;2022-12-07T20:13:09;22.1;;;15.5;;
37365;SDS011;23239;51.504;7.456;2022-12-07T20:18:09;21.1;;;16.4;;
37365;SDS011;23239;51.504;7.456;2022-12-07T20:23:09;18.9;;;15.9;;
37365;SDS011;23239;51.504;7.456;2022-12-07T20:28:10;20.9;;;15.1;;
37365;SDS011;23239;51.504;7.456;2022-12-07T20:33:10;30.3;;;21.8;;
37365;SDS011;23239;51.504;7.456;2022-12-07T20:38:10;19.8;;;17;;
37365;SDS011;23239;51.504;7.456;2022-12-07T20:43:10;20.9;;;16.2;;
37365;SDS011;23239;51.504;7.456;2022-12-07T20:48:10;21.7;;;18;;
37365;SDS011;23239;51.504;7.456;2022-12-07T20:53:09;38.9;;;29.4;;
37365;SDS011;23239;51.504;7.456;2022-12-07T20:58:10;26;;;20.9;;
37365;SDS011;23239;51.504;7.456;2022-12-07T21:03:09;31.4;;;24.5;;
37365;SDS011;23239;51.504;7.456;2022-12-07T21:08:10;23.9;;;21.4;;
37365;SDS011;23239;51.504;7.456;2022-12-07T21:13:09;24.7;;;22.1;;
37365;SDS011;23239;51.504;7.456;2022-12-07T21:18:09;27.6;;;23.3;;
37365;SDS011;23239;51.504;7.456;2022-12-07T21:23:09;30.1;;;22.9;;
37365;SDS011;23239;51.504;7.456;2022-12-07T21:28:10;31.6;;;26.1;;
37365;SDS011;23239;51.504;7.456;2022-12-07T21:33:09;30.4;;;26.1;;
37365;SDS011;23239;51.504;7.456;2022-12-07T21:38:09;27.2;;;24.1;;
37365;SDS011;23239;51.504;7.456;2022-12-07T21:43:10;30.5;;;26.2;;
37365;SDS011;23239;51.504;7.456;2022-12-07T21:48:09;32.9;;;28.1;;
37365;SDS011;23239;51.504;7.456;2022-12-07T21:53:10;34.4;;;30.5;;
37365;SDS011;23239;51.504;7.456;2022-12-07T21:58:10;41.4;;;36.9;;
37365;SDS011;23239;51.504;7.456;2022-12-07T22:03:10;47.2;;;42;;
37365;SDS011;23239;51.504;7.456;2022-12-07T22:08:10;34.4;;;29.6;;
37365;SDS011;23239;51.504;7.456;2022-12-07T22:13:10;37.5;;;32.6;;
37365;SDS011;23239;51.504;7.456;2022-12-07T22:18:11;35.1;;;30.8;;
37365;SDS011;23239;51.504;7.456;2022-12-07T22:23:09;31.8;;;28.3;;
37365;SDS011;23239;51.504;7.456;2022-12-07T22:28:10;33.9;;;27.1;;
37365;SDS011;23239;51.504;7.456;2022-12-07T22:33:09;31.8;;;27.6;;
37365;SDS011;23239;51.504;7.456;2022-12-07T22:38:09;33.1;;;26.8;;
37365;SDS011;23239;51.504;7.456;2022-12-07T22:43:10;30.4;;;26.3;;
37365;SDS011;23239;51.504;7.456;2022-12-07T22:48:10;30.5;;;26.1;;
37365;SDS011;23239;51.504;7.456;2022-12-07T22:53:09;28.5;;;24.1;;
37365;SDS011;23239;51.504;7.456;2022-12-07T22:58:10;32.2;;;25.2;;
37365;SDS011;23239;51.504;7.456;2022-12-07T23:03:09;26.5;;;23.6;;
37365;SDS011;23239;51.504;7.456;2022-12-07T23:08:10;28.1;;;22.6;;
37365;SDS011;23239;51.504;7.456;2022-12-07T23:13:10;27.2;;;24;;
37365;SDS011;23239;51.504;7.456;2022-12-07T23:18:09;26.7;;;21.7;;
37365;SDS011;23239;51.504;7.456;2022-12-07T23:23:09;28.5;;;22.2;;
37365;SDS011;23239;51.504;7.456;2022-12-07T23:28:10;25.4;;;21.1;;
37365;SDS011;23239;51.504;7.456;2022-12-07T23:33:09;22.4;;;19.4;;
37365;SDS011;23239;51.504;7.456;2022-12-07T23:38:10;24.4;;;19.1;;
37365;SDS011;23239;51.504;7.456;2022-12-07T23:43:10;20.5;;;17.4;;
37365;SDS011;23239;51.504;7.456;2022-12-07T23:48:09;20.5;;;16.5;;
37365;SDS011;23239;51.504;7.456;2022-12-07T23:53:10;22.3;;;16.9;;
37365;SDS011;23239;51.504;7.456;2022-12-07T23:58:09;20.3;;;16.3;;
